createdAt,value
2018-08-16T00:00:51.634Z,15.76
2018-08-16T00:01:51.629Z,15.66
2018-08-16T00:02:51.624Z,15.70
2018-08-16T00:03:51.637Z,15.70
2018-08-16T00:04:51.608Z,15.67
2018-08-16T00:05:51.580Z,15.70
2018-08-16T00:06:51.577Z,15.68
2018-08-16T00:07:51.561Z,15.66
2018-08-16T00:08:51.589Z,15.70
2018-08-16T00:09:51.543Z,15.64
2018-08-16T00:10:51.540Z,15.60
2018-08-16T00:11:51.531Z,15.59
2018-08-16T00:12:51.504Z,15.55
2018-08-16T00:13:51.526Z,15.59
2018-08-16T00:14:51.535Z,15.64
2018-08-16T00:15:51.470Z,15.58
2018-08-16T00:16:51.466Z,15.58
2018-08-16T00:17:51.457Z,15.58
2018-08-16T00:18:51.482Z,15.43
2018-08-16T00:19:51.429Z,15.49
2018-08-16T00:20:51.434Z,15.44
2018-08-16T00:21:51.406Z,15.44
2018-08-16T00:22:51.401Z,15.46
2018-08-16T00:23:51.420Z,15.43
2018-08-16T00:24:51.379Z,15.43
2018-08-16T00:25:51.375Z,15.41
2018-08-16T00:26:51.353Z,15.44
2018-08-16T00:27:51.382Z,15.44
2018-08-16T00:28:51.352Z,15.48
2018-08-16T00:29:51.322Z,15.41
2018-08-16T00:30:51.331Z,15.38
2018-08-16T00:31:51.298Z,15.35
2018-08-16T00:32:51.284Z,15.40
2018-08-16T00:33:51.305Z,15.35
2018-08-16T00:34:51.274Z,15.27
2018-08-16T00:35:51.260Z,15.30
2018-08-16T00:36:51.255Z,15.37
2018-08-16T00:37:51.239Z,15.35
2018-08-16T00:38:51.247Z,15.28
2018-08-16T00:39:51.225Z,15.28
2018-08-16T00:40:51.217Z,15.20
2018-08-16T00:41:51.201Z,15.27
2018-08-16T00:42:51.177Z,15.19
2018-08-16T00:43:51.190Z,15.23
2018-08-16T00:44:51.172Z,15.27
2018-08-16T00:45:51.141Z,15.16
2018-08-16T00:46:51.143Z,15.13
2018-08-16T00:47:51.125Z,15.18
2018-08-16T00:48:51.145Z,15.16
2018-08-16T00:49:51.113Z,15.01
2018-08-16T00:50:51.092Z,15.16
2018-08-16T00:51:51.087Z,15.04
2018-08-16T00:52:51.077Z,15.05
2018-08-16T00:53:51.107Z,15.01
2018-08-16T00:54:51.057Z,15.07
2018-08-16T00:55:51.063Z,15.03
2018-08-16T00:56:51.023Z,15.03
2018-08-16T00:57:51.028Z,15.03
2018-08-16T00:58:51.051Z,15.00
2018-08-16T00:59:51.017Z,14.94
2018-08-16T01:00:51.030Z,15.03
2018-08-16T01:01:50.978Z,15.01
2018-08-16T01:02:50.971Z,15.03
2018-08-16T01:03:50.987Z,15.03
2018-08-16T01:04:50.936Z,15.04
2018-08-16T01:05:50.942Z,15.00
2018-08-16T01:06:50.914Z,14.98
2018-08-16T01:07:50.903Z,14.94
2018-08-16T01:08:50.923Z,15.03
2018-08-16T01:09:50.900Z,15.03
2018-08-16T01:10:50.890Z,15.03
2018-08-16T01:11:50.873Z,15.16
2018-08-16T01:12:50.863Z,15.12
2018-08-16T01:13:50.873Z,15.13
2018-08-16T01:14:50.832Z,15.12
2018-08-16T01:15:50.827Z,15.13
2018-08-16T01:16:50.814Z,15.19
2018-08-16T01:17:50.794Z,15.25
2018-08-16T01:18:50.824Z,15.30
2018-08-16T01:19:50.773Z,15.33
2018-08-16T01:20:50.763Z,15.28
2018-08-16T01:21:50.753Z,15.28
2018-08-16T01:22:50.744Z,15.43
2018-08-16T01:23:50.754Z,15.38
2018-08-16T01:24:50.726Z,15.38
2018-08-16T01:25:50.720Z,15.49
2018-08-16T01:26:50.710Z,15.31
2018-08-16T01:27:50.702Z,15.43
2018-08-16T01:28:50.712Z,15.44
2018-08-16T01:29:50.683Z,15.41
2018-08-16T01:30:50.653Z,15.43
2018-08-16T01:31:50.643Z,15.43
2018-08-16T01:32:50.634Z,15.34
2018-08-16T01:33:50.652Z,15.38
2018-08-16T01:34:50.626Z,15.33
2018-08-16T01:35:50.609Z,15.38
2018-08-16T01:36:50.611Z,15.43
2018-08-16T01:37:50.578Z,15.35
2018-08-16T01:38:50.590Z,15.48
2018-08-16T01:39:50.557Z,15.41
2018-08-16T01:40:50.550Z,15.49
2018-08-16T01:41:50.537Z,15.49
2018-08-16T01:42:50.538Z,15.46
2018-08-16T01:43:50.538Z,15.51
2018-08-16T01:44:50.518Z,15.53
2018-08-16T01:45:50.489Z,15.43
2018-08-16T01:46:50.479Z,15.48
2018-08-16T01:47:50.469Z,15.48
2018-08-16T01:48:50.508Z,15.53
2018-08-16T01:49:50.448Z,15.53
2018-08-16T01:50:50.436Z,15.49
2018-08-16T01:51:50.435Z,15.52
2018-08-16T01:52:50.420Z,15.49
2018-08-16T01:53:50.426Z,15.53
2018-08-16T01:54:50.393Z,15.46
2018-08-16T01:55:50.410Z,15.44
2018-08-16T01:56:50.372Z,15.55
2018-08-16T01:57:50.360Z,15.52
2018-08-16T01:58:50.378Z,15.55
2018-08-16T01:59:50.344Z,15.44
2018-08-16T02:00:50.327Z,15.55
2018-08-16T02:01:50.329Z,15.55
2018-08-16T02:02:50.306Z,15.53
2018-08-16T02:03:50.333Z,15.56
2018-08-16T02:04:50.285Z,15.58
2018-08-16T02:05:50.276Z,15.56
2018-08-16T02:06:50.263Z,15.52
2018-08-16T02:07:50.284Z,15.48
2018-08-16T02:08:50.269Z,15.49
2018-08-16T02:09:50.232Z,15.56
2018-08-16T02:10:50.218Z,15.52
2018-08-16T02:11:50.218Z,15.48
2018-08-16T02:12:50.198Z,15.43
2018-08-16T02:13:50.210Z,15.41
2018-08-16T02:14:50.211Z,15.44
2018-08-16T02:15:50.185Z,15.48
2018-08-16T02:16:50.156Z,15.46
2018-08-16T02:17:50.144Z,15.37
2018-08-16T02:18:50.160Z,15.43
2018-08-16T02:19:50.130Z,15.48
2018-08-16T02:20:50.112Z,15.33
2018-08-16T02:21:50.118Z,15.43
2018-08-16T02:22:50.103Z,15.38
2018-08-16T02:23:50.103Z,15.37
2018-08-16T02:24:50.071Z,15.35
2018-08-16T02:25:50.056Z,15.40
2018-08-16T02:26:50.045Z,15.37
2018-08-16T02:27:50.043Z,15.33
2018-08-16T02:28:50.071Z,15.33
2018-08-16T02:29:50.104Z,15.35
2018-08-16T02:30:50.012Z,15.34
2018-08-16T02:31:49.992Z,15.30
2018-08-16T02:32:49.984Z,15.33
2018-08-16T02:33:50.003Z,15.25
2018-08-16T02:34:49.962Z,15.27
2018-08-16T02:35:49.997Z,15.19
2018-08-16T02:36:50.008Z,15.20
2018-08-16T02:37:49.956Z,15.18
2018-08-16T02:38:49.939Z,15.19
2018-08-16T02:39:49.903Z,15.13
2018-08-16T02:40:49.909Z,15.09
2018-08-16T02:41:49.885Z,15.13
2018-08-16T02:42:49.898Z,15.12
2018-08-16T02:43:49.896Z,15.03
2018-08-16T02:44:49.850Z,15.00
2018-08-16T02:45:49.878Z,14.98
2018-08-16T02:46:49.828Z,14.97
2018-08-16T02:47:49.820Z,14.94
2018-08-16T02:48:49.875Z,15.00
2018-08-16T02:49:49.800Z,14.93
2018-08-16T02:50:49.818Z,14.94
2018-08-16T02:51:49.777Z,14.93
2018-08-16T02:52:49.773Z,14.98
2018-08-16T02:53:49.783Z,14.90
2018-08-16T02:54:49.802Z,14.85
2018-08-16T02:55:49.766Z,14.78
2018-08-16T02:56:49.742Z,14.83
2018-08-16T02:57:49.710Z,14.80
2018-08-16T02:58:49.742Z,14.87
2018-08-16T02:59:49.691Z,14.93
2018-08-16T03:00:49.683Z,14.90
2018-08-16T03:01:49.704Z,14.83
2018-08-16T03:02:49.666Z,14.86
2018-08-16T03:03:49.676Z,14.87
2018-08-16T03:04:49.697Z,14.85
2018-08-16T03:05:49.622Z,14.91
2018-08-16T03:06:49.610Z,14.85
2018-08-16T03:07:49.603Z,14.86
2018-08-16T03:08:49.618Z,14.91
2018-08-16T03:09:49.615Z,14.85
2018-08-16T03:10:49.572Z,14.75
2018-08-16T03:11:49.563Z,14.75
2018-08-16T03:12:49.546Z,14.78
2018-08-16T03:13:49.573Z,14.78
2018-08-16T03:14:49.526Z,14.83
2018-08-16T03:15:49.623Z,14.86
2018-08-16T03:16:49.502Z,14.78
2018-08-16T03:17:49.498Z,14.85
2018-08-16T03:18:49.503Z,14.90
2018-08-16T03:19:49.480Z,14.86
2018-08-16T03:20:49.488Z,14.86
2018-08-16T03:21:49.468Z,14.80
2018-08-16T03:22:49.437Z,14.80
2018-08-16T03:23:49.480Z,14.80
2018-08-16T03:24:49.415Z,14.75
2018-08-16T03:25:49.424Z,14.86
2018-08-16T03:26:49.396Z,14.80
2018-08-16T03:27:49.383Z,14.80
2018-08-16T03:28:49.423Z,14.75
2018-08-16T03:29:49.360Z,14.82
2018-08-16T03:30:49.395Z,14.74
2018-08-16T03:31:49.339Z,14.74
2018-08-16T03:32:49.328Z,14.75
2018-08-16T03:33:49.355Z,14.80
2018-08-16T03:34:49.306Z,14.79
2018-08-16T03:35:49.301Z,14.79
2018-08-16T03:36:49.324Z,14.80
2018-08-16T03:37:49.334Z,14.74
2018-08-16T03:38:49.284Z,14.74
2018-08-16T03:39:49.257Z,14.67
2018-08-16T03:40:49.257Z,14.72
2018-08-16T03:41:49.274Z,14.75
2018-08-16T03:42:49.256Z,14.78
2018-08-16T03:43:49.230Z,14.74
2018-08-16T03:44:49.213Z,14.69
2018-08-16T03:45:49.208Z,14.63
2018-08-16T03:46:49.202Z,14.64
2018-08-16T03:47:49.167Z,14.67
2018-08-16T03:48:49.176Z,14.60
2018-08-16T03:49:49.140Z,14.66
2018-08-16T03:50:49.217Z,14.60
2018-08-16T03:51:49.120Z,14.66
2018-08-16T03:52:49.114Z,14.61
2018-08-16T03:53:49.125Z,14.69
2018-08-16T03:54:49.102Z,14.56
2018-08-16T03:55:49.074Z,14.57
2018-08-16T03:56:49.081Z,14.67
2018-08-16T03:57:49.086Z,14.59
2018-08-16T03:58:49.066Z,14.63
2018-08-16T03:59:49.072Z,14.66
2018-08-16T04:00:49.023Z,14.63
2018-08-16T04:01:49.021Z,14.61
2018-08-16T04:02:48.999Z,14.71
2018-08-16T04:03:49.028Z,14.53
2018-08-16T04:04:49.066Z,14.67
2018-08-16T04:05:48.971Z,14.66
2018-08-16T04:06:48.960Z,14.59
2018-08-16T04:07:48.949Z,14.66
2018-08-16T04:08:48.975Z,14.64
2018-08-16T04:09:48.929Z,14.59
2018-08-16T04:10:48.956Z,14.64
2018-08-16T04:11:48.910Z,14.60
2018-08-16T04:12:48.899Z,14.56
2018-08-16T04:13:48.903Z,14.61
2018-08-16T04:14:48.869Z,14.59
2018-08-16T04:15:48.861Z,14.64
2018-08-16T04:16:48.920Z,14.63
2018-08-16T04:17:48.838Z,14.60
2018-08-16T04:18:48.854Z,14.61
2018-08-16T04:19:48.827Z,14.60
2018-08-16T04:20:48.810Z,14.71
2018-08-16T04:21:48.794Z,14.63
2018-08-16T04:22:48.816Z,14.59
2018-08-16T04:23:48.828Z,14.60
2018-08-16T04:24:48.762Z,14.66
2018-08-16T04:25:48.767Z,14.57
2018-08-16T04:26:48.759Z,14.57
2018-08-16T04:27:48.727Z,14.69
2018-08-16T04:28:48.755Z,14.59
2018-08-16T04:29:48.708Z,14.72
2018-08-16T04:30:48.734Z,14.67
2018-08-16T04:31:48.688Z,14.63
2018-08-16T04:32:48.674Z,14.69
2018-08-16T04:33:48.692Z,14.56
2018-08-16T04:34:48.658Z,14.56
2018-08-16T04:35:48.642Z,14.54
2018-08-16T04:36:48.688Z,14.48
2018-08-16T04:37:48.654Z,14.60
2018-08-16T04:38:48.637Z,14.64
2018-08-16T04:39:48.594Z,14.53
2018-08-16T04:40:48.591Z,14.61
2018-08-16T04:41:48.759Z,14.60
2018-08-16T04:42:48.567Z,14.63
2018-08-16T04:43:48.592Z,14.63
2018-08-16T04:44:48.578Z,14.57
2018-08-16T04:45:48.531Z,14.67
2018-08-16T04:46:48.522Z,14.64
2018-08-16T04:47:48.508Z,14.63
2018-08-16T04:48:48.523Z,14.69
2018-08-16T04:49:48.486Z,14.67
2018-08-16T04:50:48.476Z,14.63
2018-08-16T04:51:48.533Z,14.66
2018-08-16T04:52:48.457Z,14.69
2018-08-16T04:53:48.476Z,14.67
2018-08-16T04:54:48.435Z,14.63
2018-08-16T04:55:48.425Z,14.63
2018-08-16T04:56:48.425Z,14.69
2018-08-16T04:57:48.404Z,14.71
2018-08-16T04:58:48.482Z,14.72
2018-08-16T04:59:48.378Z,14.64
2018-08-16T05:00:48.370Z,14.75
2018-08-16T05:01:48.359Z,14.61
2018-08-16T05:02:48.351Z,14.67
2018-08-16T05:03:48.362Z,14.64
2018-08-16T05:04:48.361Z,14.69
2018-08-16T05:05:48.317Z,14.72
2018-08-16T05:06:48.311Z,14.72
2018-08-16T05:07:48.290Z,14.66
2018-08-16T05:08:48.279Z,14.67
2018-08-16T05:09:48.296Z,14.74
2018-08-16T05:10:48.261Z,14.72
2018-08-16T05:11:48.271Z,14.74
2018-08-16T05:12:48.242Z,14.67
2018-08-16T05:13:48.233Z,14.64
2018-08-16T05:14:48.243Z,14.71
2018-08-16T05:15:48.204Z,14.66
2018-08-16T05:16:48.198Z,14.71
2018-08-16T05:17:48.214Z,14.66
2018-08-16T05:18:48.173Z,14.69
2018-08-16T05:19:48.197Z,14.71
2018-08-16T05:20:48.155Z,14.75
2018-08-16T05:21:48.140Z,14.72
2018-08-16T05:22:48.169Z,14.80
2018-08-16T05:23:48.170Z,14.80
2018-08-16T05:24:48.106Z,14.86
2018-08-16T05:25:48.125Z,14.91
2018-08-16T05:26:48.099Z,15.00
2018-08-16T05:27:48.080Z,15.03
2018-08-16T05:28:48.065Z,15.00
2018-08-16T05:29:48.064Z,15.20
2018-08-16T05:30:48.098Z,15.20
2018-08-16T05:31:48.076Z,15.22
2018-08-16T05:32:48.020Z,15.25
2018-08-16T05:33:48.011Z,15.34
2018-08-16T05:34:48.000Z,15.27
2018-08-16T05:35:47.988Z,15.43
2018-08-16T05:36:48.028Z,15.38
2018-08-16T05:37:47.967Z,15.40
2018-08-16T05:38:47.955Z,15.40
2018-08-16T05:39:47.948Z,15.49
2018-08-16T05:40:47.965Z,15.51
2018-08-16T05:41:47.937Z,15.44
2018-08-16T05:42:47.931Z,15.59
2018-08-16T05:43:47.920Z,15.66
2018-08-16T05:44:47.890Z,15.70
2018-08-16T05:45:47.896Z,15.66
2018-08-16T05:46:47.909Z,15.76
2018-08-16T05:47:47.869Z,15.77
2018-08-16T05:48:47.845Z,15.77
2018-08-16T05:49:47.834Z,15.91
2018-08-16T05:50:47.854Z,15.95
2018-08-16T05:51:47.883Z,16.01
2018-08-16T05:52:47.803Z,16.03
2018-08-16T05:53:47.792Z,16.08
2018-08-16T05:54:47.779Z,16.13
2018-08-16T05:55:47.780Z,16.18
2018-08-16T05:56:47.782Z,16.23
2018-08-16T05:57:47.768Z,16.22
2018-08-16T05:58:47.744Z,16.23
2018-08-16T05:59:47.729Z,16.23
2018-08-16T06:00:47.743Z,16.26
2018-08-16T06:01:47.769Z,16.33
2018-08-16T06:02:47.729Z,16.36
2018-08-16T06:03:47.697Z,16.44
2018-08-16T06:04:47.676Z,16.52
2018-08-16T06:05:47.663Z,16.45
2018-08-16T06:06:47.648Z,16.57
2018-08-16T06:07:47.662Z,16.63
2018-08-16T06:08:47.627Z,16.66
2018-08-16T06:09:47.632Z,16.65
2018-08-16T06:10:47.610Z,16.72
2018-08-16T06:11:47.597Z,16.81
2018-08-16T06:12:47.618Z,16.98
2018-08-16T06:13:47.577Z,16.95
2018-08-16T06:14:47.565Z,17.09
2018-08-16T06:15:47.603Z,17.15
2018-08-16T06:16:47.547Z,17.27
2018-08-16T06:17:47.529Z,17.47
2018-08-16T06:18:47.544Z,17.66
2018-08-16T06:19:47.510Z,17.62
2018-08-16T06:20:47.499Z,17.79
2018-08-16T06:21:47.520Z,17.94
2018-08-16T06:22:47.560Z,17.96
2018-08-16T06:23:47.496Z,18.04
2018-08-16T06:24:47.456Z,18.07
2018-08-16T06:25:47.457Z,18.07
2018-08-16T06:26:47.443Z,18.07
2018-08-16T06:27:47.425Z,18.05
2018-08-16T06:28:47.496Z,18.23
2018-08-16T06:29:47.415Z,18.39
2018-08-16T06:30:47.397Z,18.54
2018-08-16T06:31:47.458Z,18.76
2018-08-16T06:32:47.368Z,18.96
2018-08-16T06:33:47.386Z,19.21
2018-08-16T06:34:47.365Z,19.39
2018-08-16T06:35:47.336Z,19.39
2018-08-16T06:36:47.325Z,19.50
2018-08-16T06:37:47.312Z,19.52
2018-08-16T06:38:47.762Z,19.50
2018-08-16T06:39:47.290Z,19.50
2018-08-16T06:40:47.313Z,19.45
2018-08-16T06:41:47.275Z,19.57
2018-08-16T06:42:47.261Z,19.40
2018-08-16T06:43:47.250Z,19.38
2018-08-16T06:44:47.265Z,19.34
2018-08-16T06:45:47.226Z,19.40
2018-08-16T06:46:47.256Z,19.39
2018-08-16T06:47:47.207Z,19.47
2018-08-16T06:48:47.196Z,19.55
2018-08-16T06:49:47.197Z,19.68
2018-08-16T06:50:47.203Z,19.86
2018-08-16T06:51:47.160Z,19.97
2018-08-16T06:52:47.239Z,20.34
2018-08-16T06:53:47.147Z,20.58
2018-08-16T06:54:47.128Z,20.81
2018-08-16T06:55:47.140Z,21.30
2018-08-16T06:56:47.104Z,21.59
2018-08-16T06:57:47.093Z,21.89
2018-08-16T06:58:47.130Z,22.19
2018-08-16T06:59:47.081Z,22.45
2018-08-16T07:00:47.149Z,22.54
2018-08-16T07:01:47.050Z,22.51
2018-08-16T07:02:47.042Z,22.39
2018-08-16T07:03:47.029Z,22.41
2018-08-16T07:04:47.053Z,22.52
2018-08-16T07:05:47.016Z,22.79
2018-08-16T07:06:47.084Z,22.72
2018-08-16T07:07:46.985Z,22.76
2018-08-16T07:08:46.974Z,22.79
2018-08-16T07:09:46.965Z,22.86
2018-08-16T07:10:46.955Z,22.88
2018-08-16T07:11:46.980Z,22.86
2018-08-16T07:12:46.943Z,22.91
2018-08-16T07:13:46.932Z,22.96
2018-08-16T07:14:46.917Z,23.04
2018-08-16T07:15:46.960Z,23.06
2018-08-16T07:16:46.886Z,23.12
2018-08-16T07:17:46.901Z,23.04
2018-08-16T07:18:46.921Z,23.06
2018-08-16T07:19:46.861Z,23.14
2018-08-16T07:20:46.850Z,23.00
2018-08-16T07:21:46.864Z,22.70
2018-08-16T07:22:46.856Z,22.44
2018-08-16T07:23:46.811Z,22.23
2018-08-16T07:24:46.901Z,22.38
2018-08-16T07:25:46.789Z,22.56
2018-08-16T07:26:46.779Z,22.48
2018-08-16T07:27:46.780Z,22.44
2018-08-16T07:28:46.785Z,22.29
2018-08-16T07:29:46.752Z,22.02
2018-08-16T07:30:46.736Z,21.70
2018-08-16T07:31:46.733Z,21.63
2018-08-16T07:32:46.718Z,21.34
2018-08-16T07:33:46.741Z,21.27
2018-08-16T07:34:46.713Z,21.28
2018-08-16T07:35:46.681Z,21.22
2018-08-16T07:36:46.670Z,21.19
2018-08-16T07:37:46.659Z,21.16
2018-08-16T07:38:46.682Z,21.12
2018-08-16T07:39:46.640Z,21.08
2018-08-16T07:40:46.627Z,21.09
2018-08-16T07:41:46.625Z,21.15
2018-08-16T07:42:46.623Z,21.13
2018-08-16T07:43:46.597Z,21.03
2018-08-16T07:44:46.640Z,21.09
2018-08-16T07:45:46.752Z,21.05
2018-08-16T07:46:46.564Z,21.09
2018-08-16T07:47:46.552Z,21.06
2018-08-16T07:48:46.561Z,21.13
2018-08-16T07:49:46.576Z,21.08
2018-08-16T07:50:46.520Z,21.08
2018-08-16T07:51:46.641Z,21.13
2018-08-16T07:52:46.499Z,21.03
2018-08-16T07:53:46.486Z,21.08
2018-08-16T07:54:46.494Z,21.13
2018-08-16T07:55:46.489Z,21.22
2018-08-16T07:56:46.457Z,21.18
2018-08-16T07:57:46.459Z,21.12
2018-08-16T07:58:46.435Z,21.11
2018-08-16T07:59:46.428Z,21.19
2018-08-16T08:00:46.457Z,21.21
2018-08-16T08:01:46.401Z,21.34
2018-08-16T08:02:46.393Z,21.31
2018-08-16T08:03:46.387Z,21.33
2018-08-16T08:04:46.369Z,21.37
2018-08-16T08:05:46.384Z,21.33
2018-08-16T08:06:46.346Z,21.30
2018-08-16T08:07:46.339Z,21.36
2018-08-16T08:08:46.452Z,21.46
2018-08-16T08:09:46.455Z,21.46
2018-08-16T08:10:46.327Z,21.46
2018-08-16T08:11:46.299Z,21.49
2018-08-16T08:12:46.280Z,21.51
2018-08-16T08:13:46.272Z,21.53
2018-08-16T08:14:46.269Z,21.61
2018-08-16T08:15:46.298Z,21.55
2018-08-16T08:16:46.240Z,21.63
2018-08-16T08:17:46.225Z,21.66
2018-08-16T08:18:46.220Z,21.70
2018-08-16T08:19:46.206Z,21.71
2018-08-16T08:20:46.192Z,21.73
2018-08-16T08:21:46.215Z,21.74
2018-08-16T08:22:46.177Z,21.81
2018-08-16T08:23:46.182Z,21.86
2018-08-16T08:24:46.157Z,21.83
2018-08-16T08:25:46.154Z,22.05
2018-08-16T08:26:46.227Z,22.06
2018-08-16T08:27:46.116Z,22.11
2018-08-16T08:28:46.193Z,22.17
2018-08-16T08:29:46.096Z,22.17
2018-08-16T08:30:46.083Z,22.12
2018-08-16T08:31:46.155Z,22.21
2018-08-16T08:32:46.112Z,22.17
2018-08-16T08:33:46.066Z,22.27
2018-08-16T08:34:46.043Z,22.36
2018-08-16T08:35:46.051Z,22.38
2018-08-16T08:36:46.053Z,22.45
2018-08-16T08:37:46.038Z,22.46
2018-08-16T08:38:46.009Z,22.54
2018-08-16T08:39:45.989Z,22.63
2018-08-16T08:40:45.996Z,22.63
2018-08-16T08:41:45.974Z,22.72
2018-08-16T08:42:45.997Z,22.74
2018-08-16T08:43:45.976Z,22.82
2018-08-16T08:44:45.944Z,22.78
2018-08-16T08:45:45.930Z,22.82
2018-08-16T08:46:45.949Z,22.94
2018-08-16T08:47:45.908Z,22.96
2018-08-16T08:48:45.939Z,23.03
2018-08-16T08:49:45.883Z,23.07
2018-08-16T08:50:45.876Z,23.21
2018-08-16T08:51:45.866Z,23.26
2018-08-16T08:52:45.870Z,23.25
2018-08-16T08:53:45.880Z,23.41
2018-08-16T08:54:45.835Z,23.38
2018-08-16T08:55:45.839Z,23.42
2018-08-16T08:56:45.809Z,23.44
2018-08-16T08:57:45.799Z,23.39
2018-08-16T08:58:45.807Z,23.44
2018-08-16T08:59:45.808Z,23.47
2018-08-16T09:00:45.766Z,23.54
2018-08-16T09:01:45.773Z,23.57
2018-08-16T09:02:45.751Z,23.59
2018-08-16T09:03:45.760Z,23.72
2018-08-16T09:04:45.724Z,23.78
2018-08-16T09:05:45.747Z,23.78
2018-08-16T09:06:45.735Z,23.90
2018-08-16T09:07:45.691Z,23.93
2018-08-16T09:08:45.678Z,23.94
2018-08-16T09:09:45.669Z,24.02
2018-08-16T09:10:45.751Z,24.11
2018-08-16T09:11:45.645Z,24.21
2018-08-16T09:12:45.636Z,24.18
2018-08-16T09:13:45.664Z,24.19
2018-08-16T09:14:45.616Z,24.19
2018-08-16T09:15:45.610Z,24.34
2018-08-16T09:16:45.626Z,24.42
2018-08-16T09:17:45.597Z,24.48
2018-08-16T09:18:45.585Z,24.44
2018-08-16T09:19:45.570Z,24.41
2018-08-16T09:20:45.560Z,24.51
2018-08-16T09:21:45.564Z,24.56
2018-08-16T09:22:45.533Z,24.63
2018-08-16T09:23:45.527Z,24.79
2018-08-16T09:24:45.508Z,24.83
2018-08-16T09:25:45.492Z,24.80
2018-08-16T09:26:45.505Z,24.86
2018-08-16T09:27:45.469Z,24.74
2018-08-16T09:28:45.489Z,24.79
2018-08-16T09:29:45.500Z,24.77
2018-08-16T09:30:45.437Z,24.90
2018-08-16T09:31:45.457Z,24.92
2018-08-16T09:32:45.423Z,24.92
2018-08-16T09:33:45.404Z,24.93
2018-08-16T09:34:45.394Z,24.99
2018-08-16T09:35:45.385Z,24.99
2018-08-16T09:36:45.402Z,25.09
2018-08-16T09:37:45.362Z,25.20
2018-08-16T09:38:45.352Z,25.26
2018-08-16T09:39:45.490Z,25.11
2018-08-16T09:40:45.340Z,25.01
2018-08-16T09:41:45.385Z,25.01
2018-08-16T09:42:45.314Z,24.89
2018-08-16T09:43:45.306Z,24.97
2018-08-16T09:44:45.301Z,25.05
2018-08-16T09:45:45.369Z,25.04
2018-08-16T09:46:45.276Z,25.02
2018-08-16T09:47:45.289Z,25.04
2018-08-16T09:48:45.248Z,25.04
2018-08-16T09:49:45.243Z,25.01
2018-08-16T09:50:45.228Z,24.99
2018-08-16T09:51:45.291Z,24.98
2018-08-16T09:52:45.258Z,25.01
2018-08-16T09:53:45.192Z,25.11
2018-08-16T09:54:45.183Z,25.26
2018-08-16T09:55:45.174Z,25.16
2018-08-16T09:56:45.159Z,25.30
2018-08-16T09:57:45.157Z,25.36
2018-08-16T09:58:45.164Z,25.34
2018-08-16T09:59:45.126Z,25.38
2018-08-16T10:00:45.134Z,25.34
2018-08-16T10:01:45.107Z,25.34
2018-08-16T10:02:45.189Z,25.31
2018-08-16T10:03:45.108Z,25.45
2018-08-16T10:04:45.076Z,25.42
2018-08-16T10:05:45.063Z,25.39
2018-08-16T10:06:45.080Z,25.46
2018-08-16T10:07:45.040Z,25.51
2018-08-16T10:08:45.069Z,25.46
2018-08-16T10:09:45.027Z,25.57
2018-08-16T10:10:45.010Z,25.51
2018-08-16T10:11:44.999Z,25.53
2018-08-16T10:12:44.988Z,25.48
2018-08-16T10:13:45.022Z,25.56
2018-08-16T10:14:44.967Z,25.51
2018-08-16T10:15:44.955Z,25.53
2018-08-16T10:16:44.943Z,25.59
2018-08-16T10:17:44.935Z,25.56
2018-08-16T10:18:44.947Z,25.56
2018-08-16T10:19:44.948Z,25.53
2018-08-16T10:20:44.953Z,25.59
2018-08-16T10:21:44.894Z,25.75
2018-08-16T10:22:44.881Z,25.78
2018-08-16T10:23:44.872Z,25.76
2018-08-16T10:24:44.910Z,25.82
2018-08-16T10:25:44.851Z,25.78
2018-08-16T10:26:44.838Z,25.79
2018-08-16T10:27:44.827Z,25.78
2018-08-16T10:28:44.832Z,25.74
2018-08-16T10:29:44.825Z,25.89
2018-08-16T10:30:44.826Z,25.83
2018-08-16T10:31:44.800Z,25.91
2018-08-16T10:32:44.773Z,25.90
2018-08-16T10:33:44.783Z,25.97
2018-08-16T10:34:44.767Z,26.00
2018-08-16T10:35:44.898Z,25.96
2018-08-16T10:36:44.730Z,25.94
2018-08-16T10:37:44.757Z,25.98
2018-08-16T10:38:44.812Z,25.91
2018-08-16T10:39:44.701Z,25.91
2018-08-16T10:40:44.728Z,26.01
2018-08-16T10:41:44.680Z,26.08
2018-08-16T10:42:44.678Z,26.11
2018-08-16T10:43:44.661Z,26.12
2018-08-16T10:44:44.649Z,26.20
2018-08-16T10:45:44.644Z,26.27
2018-08-16T10:46:44.657Z,26.24
2018-08-16T10:47:44.620Z,26.28
2018-08-16T10:48:44.605Z,26.31
2018-08-16T10:49:44.590Z,26.42
2018-08-16T10:50:44.588Z,26.42
2018-08-16T10:51:44.574Z,26.49
2018-08-16T10:52:44.590Z,26.44
2018-08-16T10:53:44.548Z,26.53
2018-08-16T10:54:44.537Z,26.35
2018-08-16T10:55:44.533Z,26.51
2018-08-16T10:56:44.520Z,26.57
2018-08-16T10:57:44.530Z,26.49
2018-08-16T10:58:44.508Z,26.57
2018-08-16T10:59:44.484Z,26.60
2018-08-16T11:00:44.481Z,26.60
2018-08-16T11:01:44.472Z,26.60
2018-08-16T11:02:44.494Z,26.72
2018-08-16T11:03:44.448Z,26.73
2018-08-16T11:04:44.444Z,26.79
2018-08-16T11:05:44.420Z,26.88
2018-08-16T11:06:44.428Z,26.81
2018-08-16T11:07:44.426Z,26.79
2018-08-16T11:08:44.388Z,26.86
2018-08-16T11:09:44.382Z,26.94
2018-08-16T11:10:44.378Z,26.97
2018-08-16T11:11:44.358Z,27.01
2018-08-16T11:12:44.408Z,27.20
2018-08-16T11:13:44.334Z,27.21
2018-08-16T11:14:44.327Z,27.31
2018-08-16T11:15:44.326Z,27.35
2018-08-16T11:16:44.339Z,27.28
2018-08-16T11:17:44.324Z,27.21
2018-08-16T11:18:44.317Z,27.30
2018-08-16T11:19:44.273Z,27.27
2018-08-16T11:20:44.263Z,27.28
2018-08-16T11:21:44.250Z,27.28
2018-08-16T11:22:44.242Z,27.45
2018-08-16T11:23:44.255Z,27.50
2018-08-16T11:24:44.216Z,27.58
2018-08-16T11:25:44.210Z,27.71
2018-08-16T11:26:44.208Z,27.80
2018-08-16T11:27:44.233Z,27.93
2018-08-16T11:28:44.183Z,28.32
2018-08-16T11:29:44.226Z,28.89
2018-08-16T11:30:44.187Z,29.58
2018-08-16T11:31:44.155Z,30.30
2018-08-16T11:32:44.165Z,31.15
2018-08-16T11:33:44.128Z,31.74
2018-08-16T11:34:44.114Z,32.21
2018-08-16T11:35:44.106Z,32.69
2018-08-16T11:36:44.110Z,33.34
2018-08-16T11:37:44.100Z,33.68
2018-08-16T11:38:44.097Z,34.06
2018-08-16T11:39:44.078Z,34.21
2018-08-16T11:40:44.170Z,34.53
2018-08-16T11:41:44.044Z,34.80
2018-08-16T11:42:44.044Z,35.34
2018-08-16T11:43:44.062Z,35.83
2018-08-16T11:44:44.025Z,35.92
2018-08-16T11:45:44.011Z,36.16
2018-08-16T11:46:44.087Z,36.12
2018-08-16T11:47:43.999Z,36.11
2018-08-16T11:48:43.979Z,36.16
2018-08-16T11:49:44.008Z,36.35
2018-08-16T11:50:43.968Z,36.28
2018-08-16T11:51:43.974Z,36.30
2018-08-16T11:52:43.947Z,36.03
2018-08-16T11:53:43.944Z,36.06
2018-08-16T11:54:43.959Z,36.03
2018-08-16T11:55:43.921Z,35.71
2018-08-16T11:56:43.967Z,35.47
2018-08-16T11:57:43.953Z,34.91
2018-08-16T11:58:44.867Z,34.93
2018-08-16T11:59:43.904Z,35.74
2018-08-16T12:00:43.942Z,36.23
2018-08-16T12:01:43.863Z,36.56
2018-08-16T12:02:43.852Z,36.40
2018-08-16T12:03:43.905Z,35.98
2018-08-16T12:04:43.831Z,35.77
2018-08-16T12:05:43.892Z,35.74
2018-08-16T12:06:43.811Z,35.77
2018-08-16T12:07:43.802Z,35.59
2018-08-16T12:08:43.820Z,35.89
2018-08-16T12:09:43.786Z,36.15
2018-08-16T12:10:43.803Z,35.93
2018-08-16T12:11:43.770Z,35.74
2018-08-16T12:12:43.758Z,35.27
2018-08-16T12:13:43.759Z,35.34
2018-08-16T12:14:43.848Z,35.91
2018-08-16T12:15:43.780Z,36.18
2018-08-16T12:16:43.734Z,36.38
2018-08-16T12:17:43.727Z,37.04
2018-08-16T12:18:43.708Z,37.30
2018-08-16T12:19:43.746Z,37.59
2018-08-16T12:20:43.690Z,37.78
2018-08-16T12:21:43.718Z,37.47
2018-08-16T12:22:43.683Z,37.46
2018-08-16T12:23:43.670Z,36.86
2018-08-16T12:24:43.665Z,36.41
2018-08-16T12:25:43.660Z,36.56
2018-08-16T12:26:43.708Z,36.44
2018-08-16T12:27:43.635Z,36.43
2018-08-16T12:28:43.624Z,36.86
2018-08-16T12:29:43.620Z,36.99
2018-08-16T12:30:43.604Z,36.82
2018-08-16T12:31:43.615Z,36.68
2018-08-16T12:32:43.619Z,36.79
2018-08-16T12:33:43.575Z,37.01
2018-08-16T12:34:43.605Z,37.25
2018-08-16T12:35:43.555Z,37.47
2018-08-16T12:36:43.552Z,37.84
2018-08-16T12:37:43.651Z,38.21
2018-08-16T12:38:43.528Z,38.65
2018-08-16T12:39:43.514Z,38.84
2018-08-16T12:40:43.539Z,39.16
2018-08-16T12:41:43.498Z,38.72
2018-08-16T12:42:43.540Z,37.96
2018-08-16T12:43:43.479Z,37.75
2018-08-16T12:44:43.468Z,37.93
2018-08-16T12:45:43.464Z,38.07
2018-08-16T12:46:43.454Z,38.03
2018-08-16T12:47:43.539Z,38.06
2018-08-16T12:48:43.466Z,37.59
2018-08-16T12:49:43.418Z,37.24
2018-08-16T12:50:43.636Z,37.12
2018-08-16T12:51:43.395Z,36.97
2018-08-16T12:52:43.392Z,36.49